createdAt,value
2019-01-20T00:00:53.421Z,9.90
2019-01-20T00:03:34.653Z,10.17
2019-01-20T00:06:04.035Z,7.60
2019-01-20T00:08:33.325Z,10.83
2019-01-20T00:11:02.760Z,6.60
2019-01-20T00:13:32.175Z,7.30
2019-01-20T00:16:01.855Z,11.87
2019-01-20T00:18:31.135Z,5.33
2019-01-20T00:21:00.506Z,13.50
2019-01-20T00:23:29.805Z,10.60
2019-01-20T00:25:59.136Z,7.53
2019-01-20T00:28:28.420Z,13.77
2019-01-20T00:30:57.774Z,12.40
2019-01-20T00:33:27.091Z,8.33
2019-01-20T00:35:56.412Z,13.27
2019-01-20T00:38:25.719Z,6.87
2019-01-20T00:40:55.046Z,16.53
2019-01-20T00:43:24.323Z,4.83
2019-01-20T00:45:53.625Z,13.63
2019-01-20T00:48:22.946Z,8.73
2019-01-20T00:50:52.256Z,12.30
2019-01-20T00:53:21.628Z,14.40
2019-01-20T00:55:50.974Z,8.60
2019-01-20T00:58:20.340Z,4.27
2019-01-20T01:00:49.687Z,12.90
2019-01-20T01:03:19.191Z,12.67
2019-01-20T01:05:48.527Z,7.30
2019-01-20T01:08:17.843Z,9.47
2019-01-20T01:10:47.172Z,7.00
2019-01-20T01:13:35.512Z,12.70
2019-01-20T01:16:05.113Z,9.97
2019-01-20T01:18:34.413Z,10.50
2019-01-20T01:21:03.939Z,7.57
2019-01-20T01:23:33.239Z,8.80
2019-01-20T01:26:02.783Z,16.50
2019-01-20T01:28:32.078Z,17.43
2019-01-20T01:31:01.454Z,17.23
2019-01-20T01:33:49.827Z,10.63
2019-01-20T01:36:19.126Z,13.07
2019-01-20T01:39:08.593Z,16.50
2019-01-20T01:44:13.214Z,12.93
2019-01-20T01:46:42.514Z,7.50
2019-01-20T01:52:00.312Z,12.37
2019-01-20T01:54:29.597Z,10.30
2019-01-20T01:56:58.950Z,9.07
2019-01-20T01:59:28.253Z,12.67
2019-01-20T02:01:57.839Z,8.63
2019-01-20T02:04:27.170Z,8.80
2019-01-20T02:07:15.468Z,15.93
2019-01-20T02:09:45.150Z,17.40
2019-01-20T02:12:33.672Z,11.67
2019-01-20T02:15:02.970Z,11.10
2019-01-20T02:17:32.593Z,8.03
2019-01-20T02:20:01.894Z,9.33
2019-01-20T02:22:50.269Z,18.70
2019-01-20T02:25:19.933Z,11.63
2019-01-20T02:30:39.143Z,15.57
2019-01-20T02:33:08.761Z,11.87
2019-01-20T02:35:38.049Z,10.07
2019-01-20T02:38:07.675Z,14.37
2019-01-20T02:40:36.972Z,16.07
2019-01-20T02:43:06.284Z,16.23
2019-01-20T02:45:35.608Z,15.43
2019-01-20T02:48:05.404Z,15.90
2019-01-20T02:50:34.708Z,12.00
2019-01-20T02:53:04.096Z,17.50
2019-01-20T02:55:33.416Z,10.10
2019-01-20T02:58:02.901Z,16.60
2019-01-20T03:03:20.536Z,14.00
2019-01-20T03:05:50.001Z,12.27
2019-01-20T03:08:19.339Z,16.53
2019-01-20T03:10:48.731Z,16.63
2019-01-20T03:13:18.023Z,11.23
2019-01-20T03:15:47.360Z,15.43
2019-01-20T03:18:16.653Z,15.60
2019-01-20T03:20:46.092Z,17.60
2019-01-20T03:23:15.508Z,13.03
2019-01-20T03:26:03.681Z,13.73
2019-01-20T03:28:52.029Z,23.50
2019-01-20T03:31:21.408Z,14.17
2019-01-20T03:33:50.843Z,9.50
2019-01-20T03:36:39.096Z,13.90
2019-01-20T03:42:02.778Z,8.57
2019-01-20T03:44:32.080Z,14.60
2019-01-20T03:47:01.495Z,9.17
2019-01-20T03:49:50.145Z,11.00
2019-01-20T03:52:19.508Z,13.07
2019-01-20T03:54:48.900Z,11.33
2019-01-20T03:57:18.281Z,10.27
2019-01-20T03:59:48.027Z,11.07
2019-01-20T04:02:18.960Z,10.40
2019-01-20T04:05:07.191Z,9.10
2019-01-20T04:07:36.690Z,7.33
2019-01-20T04:10:08.500Z,9.40
2019-01-20T04:12:37.811Z,9.43
2019-01-20T04:18:16.082Z,7.00
2019-01-20T04:20:45.391Z,7.10
2019-01-20T04:23:33.653Z,10.47
2019-01-20T04:26:03.245Z,8.20
2019-01-20T04:28:32.537Z,2.73
2019-01-20T04:31:02.010Z,8.87
2019-01-20T04:33:31.299Z,4.17
2019-01-20T04:36:00.849Z,4.67
2019-01-20T04:38:30.127Z,4.67
2019-01-20T04:40:59.518Z,2.52
2019-01-20T04:43:28.794Z,3.77
2019-01-20T04:45:58.275Z,6.53
2019-01-20T04:48:27.571Z,6.80
2019-01-20T04:51:16.146Z,5.27
2019-01-20T04:56:22.301Z,3.27
2019-01-20T04:58:51.604Z,5.47
2019-01-20T05:01:21.292Z,5.00
2019-01-20T05:03:50.587Z,5.70
2019-01-20T05:06:39.193Z,2.50
2019-01-20T05:09:09.336Z,8.33
2019-01-20T05:11:38.626Z,4.50
2019-01-20T05:14:08.064Z,10.30
2019-01-20T05:16:37.375Z,4.57
2019-01-20T05:19:06.854Z,1.97
2019-01-20T05:21:36.133Z,3.70
2019-01-20T05:29:34.018Z,1.60
2019-01-20T05:32:03.310Z,3.50
2019-01-20T05:34:51.812Z,3.40
2019-01-20T05:37:21.116Z,4.20
2019-01-20T05:39:50.438Z,2.97
2019-01-20T05:42:19.821Z,3.43
2019-01-20T05:44:49.162Z,2.83
2019-01-20T05:47:18.441Z,2.33
2019-01-20T05:49:47.734Z,5.40
2019-01-20T05:52:36.095Z,1.73
2019-01-20T05:55:06.278Z,2.07
2019-01-20T05:57:35.564Z,2.20
2019-01-20T06:00:45.118Z,4.93
2019-01-20T06:03:14.443Z,4.07
2019-01-20T06:05:43.792Z,4.27
2019-01-20T06:08:13.080Z,4.60
2019-01-20T06:10:42.446Z,7.27
2019-01-20T06:13:11.742Z,4.43
2019-01-20T06:16:00.096Z,2.33
2019-01-20T06:18:29.511Z,4.20
2019-01-20T06:23:47.111Z,1.17
2019-01-20T06:26:16.588Z,1.53
2019-01-20T06:28:45.856Z,6.47
2019-01-20T06:33:50.414Z,3.13
2019-01-20T06:36:19.708Z,0.87
2019-01-20T06:38:49.387Z,1.73
2019-01-20T06:41:18.705Z,2.63
2019-01-20T06:43:48.208Z,4.93
2019-01-20T06:46:17.497Z,4.00
2019-01-20T06:48:47.135Z,1.93
2019-01-20T06:51:16.432Z,0.80
2019-01-20T06:53:45.991Z,4.93
2019-01-20T06:56:15.408Z,7.23
2019-01-20T07:01:33.295Z,2.37
2019-01-20T07:04:22.363Z,2.03
2019-01-20T07:06:51.665Z,2.93
2019-01-20T07:09:21.244Z,3.43
2019-01-20T07:11:50.536Z,3.55
2019-01-20T07:14:20.190Z,7.47
2019-01-20T07:16:49.486Z,5.13
2019-01-20T07:19:19.275Z,4.23
2019-01-20T07:21:59.900Z,6.83
2019-01-20T07:24:29.290Z,3.80
2019-01-20T07:26:58.576Z,4.40
2019-01-20T07:29:27.950Z,2.27
2019-01-20T07:31:57.260Z,1.33
2019-01-20T07:34:27.534Z,3.90
2019-01-20T07:37:16.083Z,2.17
2019-01-20T07:39:45.388Z,2.43
2019-01-20T07:42:14.866Z,2.50
2019-01-20T07:44:44.231Z,1.67
2019-01-20T07:47:13.679Z,1.30
2019-01-20T07:49:43.010Z,1.53
2019-01-20T07:52:12.540Z,1.77
2019-01-20T07:54:41.937Z,3.30
2019-01-20T07:57:11.308Z,3.87
2019-01-20T07:59:40.675Z,3.47
2019-01-20T08:02:10.189Z,3.17
2019-01-20T08:04:39.474Z,2.00
2019-01-20T08:07:08.951Z,2.53
2019-01-20T08:09:38.315Z,3.37
2019-01-20T08:12:07.663Z,5.57
2019-01-20T08:14:55.959Z,3.87
2019-01-20T08:17:25.330Z,7.13
2019-01-20T08:19:54.763Z,1.90
2019-01-20T08:22:42.952Z,4.87
2019-01-20T08:25:33.165Z,3.17
2019-01-20T08:28:02.448Z,3.83
2019-01-20T08:30:31.775Z,2.03
2019-01-20T08:33:01.143Z,4.17
2019-01-20T08:35:30.511Z,2.70
2019-01-20T08:37:59.807Z,2.57
2019-01-20T08:40:31.483Z,16.90
2019-01-20T08:43:01.325Z,4.73
2019-01-20T08:45:52.487Z,24.47
2019-01-20T08:48:22.799Z,7.10
2019-01-20T08:50:52.185Z,3.17
2019-01-20T08:53:21.895Z,3.73
2019-01-20T08:55:51.250Z,1.67
2019-01-20T08:58:20.763Z,3.53
2019-01-20T09:00:50.096Z,2.23
2019-01-20T09:03:38.542Z,4.23
2019-01-20T09:06:07.859Z,1.83
2019-01-20T09:08:37.178Z,3.20
2019-01-20T09:11:06.563Z,2.60
2019-01-20T09:13:39.801Z,2.33
2019-01-20T09:16:26.137Z,1.60
2019-01-20T09:18:55.561Z,2.03
2019-01-20T09:21:36.223Z,1.90
2019-01-20T09:24:17.339Z,5.80
2019-01-20T09:26:46.659Z,3.67
2019-01-20T09:29:16.311Z,1.23
2019-01-20T09:31:45.625Z,3.13
2019-01-20T09:34:15.346Z,2.20
2019-01-20T09:36:44.670Z,1.83
2019-01-20T09:39:14.922Z,3.60
2019-01-20T09:41:44.215Z,7.07
2019-01-20T09:44:13.877Z,2.50
2019-01-20T09:46:43.199Z,5.30
2019-01-20T09:49:31.556Z,1.67
2019-01-20T09:52:01.323Z,3.53
2019-01-20T09:54:49.626Z,1.77
2019-01-20T09:57:18.929Z,2.70
2019-01-20T09:59:48.440Z,1.77
2019-01-20T10:02:17.729Z,3.17
2019-01-20T10:05:06.293Z,2.10
2019-01-20T10:07:35.719Z,1.37
2019-01-20T10:10:24.175Z,5.53
2019-01-20T10:12:53.493Z,1.87
2019-01-20T10:15:22.993Z,3.73
2019-01-20T10:17:52.338Z,2.27
2019-01-20T10:20:24.647Z,2.67
2019-01-20T10:22:53.951Z,2.67
2019-01-20T10:25:24.817Z,3.47
2019-01-20T10:27:54.111Z,1.90
2019-01-20T10:30:26.156Z,2.50
2019-01-20T10:32:55.478Z,2.67
2019-01-20T10:35:43.738Z,1.67
2019-01-20T10:41:13.269Z,5.10
2019-01-20T10:46:31.011Z,4.30
2019-01-20T10:49:00.529Z,1.30
2019-01-20T10:51:29.829Z,2.93
2019-01-20T10:53:59.387Z,1.47
2019-01-20T10:56:28.778Z,1.97
2019-01-20T11:01:33.126Z,2.90
2019-01-20T11:04:02.426Z,4.07
2019-01-20T11:06:32.146Z,1.93
2019-01-20T11:09:01.448Z,2.43
2019-01-20T11:11:31.249Z,3.43
2019-01-20T11:14:00.601Z,1.87
2019-01-20T11:16:30.515Z,4.50
2019-01-20T11:19:19.252Z,3.17
2019-01-20T11:21:48.538Z,4.63
2019-01-20T11:24:18.310Z,3.90
2019-01-20T11:26:47.581Z,5.47
2019-01-20T11:29:17.377Z,3.77
2019-01-20T11:31:46.688Z,3.73
2019-01-20T11:34:16.316Z,4.00
2019-01-20T11:36:45.681Z,5.73
2019-01-20T11:39:15.618Z,2.70
2019-01-20T11:41:44.909Z,4.73
2019-01-20T11:44:17.008Z,3.27
2019-01-20T11:46:45.641Z,7.47
2019-01-20T11:49:14.962Z,3.50
2019-01-20T11:51:44.265Z,3.13
2019-01-20T11:54:13.793Z,3.40
2019-01-20T11:56:43.142Z,6.27
2019-01-20T12:02:22.508Z,3.63
2019-01-20T12:04:53.082Z,2.67
2019-01-20T12:07:22.401Z,7.70
2019-01-20T12:09:51.700Z,5.43
2019-01-20T12:12:20.979Z,3.63
2019-01-20T12:14:50.300Z,4.17
2019-01-20T12:17:19.633Z,1.67
2019-01-20T12:19:48.969Z,2.23
2019-01-20T12:22:18.282Z,2.27
2019-01-20T12:24:47.693Z,8.43
2019-01-20T12:27:17.000Z,6.50
2019-01-20T12:29:51.807Z,4.63
2019-01-20T12:32:17.317Z,3.13
2019-01-20T12:34:46.655Z,2.10
2019-01-20T12:37:15.980Z,3.43
2019-01-20T12:39:45.267Z,6.37
2019-01-20T12:42:14.595Z,2.53
2019-01-20T12:44:43.888Z,6.33
2019-01-20T12:47:13.211Z,4.47
2019-01-20T12:49:42.495Z,3.70
2019-01-20T12:52:11.787Z,1.73
2019-01-20T12:54:41.530Z,2.57
2019-01-20T12:57:10.807Z,7.40
2019-01-20T12:59:40.282Z,3.20
2019-01-20T13:02:09.576Z,5.77
2019-01-20T13:04:39.207Z,4.30
2019-01-20T13:07:08.508Z,2.40
2019-01-20T13:09:38.079Z,4.23
2019-01-20T13:12:07.363Z,2.63
2019-01-20T13:14:39.116Z,2.60
2019-01-20T13:17:07.910Z,3.23
2019-01-20T13:19:37.169Z,2.57
2019-01-20T13:22:06.471Z,8.40
2019-01-20T13:24:35.947Z,2.07
2019-01-20T13:27:05.401Z,5.07
2019-01-20T13:29:34.746Z,4.23
2019-01-20T13:35:02.130Z,3.00
2019-01-20T13:37:31.826Z,2.33
2019-01-20T13:40:01.156Z,1.77
2019-01-20T13:42:30.542Z,1.60
2019-01-20T13:44:59.827Z,2.30
2019-01-20T13:47:29.131Z,4.27
2019-01-20T13:49:58.623Z,1.60
2019-01-20T13:52:28.315Z,2.70
2019-01-20T13:57:52.915Z,4.10
2019-01-20T14:00:42.088Z,2.60
2019-01-20T14:03:11.387Z,3.20
2019-01-20T14:05:40.919Z,3.60
2019-01-20T14:08:12.374Z,2.80
2019-01-20T14:10:42.073Z,7.67
2019-01-20T14:13:11.379Z,3.10
2019-01-20T14:15:40.966Z,2.30
2019-01-20T14:18:10.268Z,4.13
2019-01-20T14:23:22.353Z,4.37
2019-01-20T14:25:52.067Z,2.97
2019-01-20T14:28:21.359Z,2.70
2019-01-20T14:30:50.823Z,4.53
2019-01-20T14:33:20.179Z,2.27
2019-01-20T14:35:49.541Z,4.47
2019-01-20T14:38:37.818Z,4.03
2019-01-20T14:41:07.138Z,1.60
2019-01-20T14:43:36.844Z,2.27
2019-01-20T14:46:06.164Z,2.27
2019-01-20T14:48:35.782Z,2.50
2019-01-20T14:51:05.164Z,2.63
2019-01-20T14:53:34.693Z,6.40
2019-01-20T14:56:04.014Z,3.53
2019-01-20T14:58:33.400Z,3.10
2019-01-20T15:01:02.701Z,1.87
2019-01-20T15:03:32.354Z,4.20
2019-01-20T15:06:21.005Z,2.53
2019-01-20T15:08:50.316Z,2.10
2019-01-20T15:11:19.630Z,1.43
2019-01-20T15:13:48.951Z,2.53
2019-01-20T15:16:18.571Z,2.03
2019-01-20T15:18:47.882Z,3.23
2019-01-20T15:21:17.349Z,1.93
2019-01-20T15:23:46.651Z,3.10
2019-01-20T15:26:16.124Z,2.50
2019-01-20T15:28:45.468Z,3.13
2019-01-20T15:31:14.935Z,6.17
2019-01-20T15:33:44.256Z,1.93
2019-01-20T15:36:13.967Z,2.57
2019-01-20T15:38:43.265Z,2.30
2019-01-20T15:41:31.627Z,3.70
2019-01-20T15:46:40.216Z,2.37
2019-01-20T15:49:09.510Z,3.07
2019-01-20T15:51:39.214Z,4.77
2019-01-20T15:54:08.550Z,1.93
2019-01-20T15:59:26.598Z,2.07
2019-01-20T16:01:55.947Z,2.87
2019-01-20T16:04:25.805Z,2.33
2019-01-20T16:07:14.490Z,3.20
2019-01-20T16:09:43.778Z,2.67
2019-01-20T16:12:13.325Z,4.60
2019-01-20T16:14:42.630Z,4.60
2019-01-20T16:20:00.556Z,5.73
2019-01-20T16:22:29.869Z,22.40
2019-01-20T16:25:37.237Z,10.00
2019-01-20T16:28:17.800Z,7.10
2019-01-20T16:30:47.140Z,5.10
2019-01-20T16:33:16.751Z,6.30
2019-01-20T16:35:46.063Z,5.67
2019-01-20T16:38:15.331Z,5.20
2019-01-20T16:40:44.622Z,6.30
2019-01-20T16:43:13.988Z,6.27
2019-01-20T16:45:45.068Z,5.03
2019-01-20T16:48:14.429Z,2.63
2019-01-20T16:50:43.813Z,2.33
2019-01-20T16:53:13.222Z,4.97
2019-01-20T16:55:42.641Z,2.30
2019-01-20T16:58:12.045Z,3.03
2019-01-20T17:00:43.670Z,4.83
2019-01-20T17:03:12.965Z,4.23
2019-01-20T17:05:42.277Z,2.10
2019-01-20T17:08:30.748Z,2.50
2019-01-20T17:11:00.052Z,3.40
2019-01-20T17:13:29.368Z,4.33
2019-01-20T17:15:58.659Z,4.90
2019-01-20T17:18:28.147Z,4.50
2019-01-20T17:20:57.551Z,4.13
2019-01-20T17:23:26.853Z,1.73
2019-01-20T17:25:56.202Z,2.10
2019-01-20T17:28:25.541Z,2.40
2019-01-20T17:30:54.896Z,2.83
2019-01-20T17:33:24.192Z,5.03
2019-01-20T17:35:53.493Z,2.37
2019-01-20T17:38:22.828Z,2.13
2019-01-20T17:40:52.248Z,2.17
2019-01-20T17:43:21.554Z,2.63
2019-01-20T17:48:58.449Z,3.23
2019-01-20T17:51:28.125Z,3.57
2019-01-20T17:53:57.449Z,4.03
2019-01-20T17:56:27.089Z,3.70
2019-01-20T17:58:56.417Z,6.27
2019-01-20T18:04:14.475Z,22.40
2019-01-20T18:06:43.831Z,10.93
2019-01-20T18:09:13.285Z,10.47
2019-01-20T18:11:42.601Z,11.03
2019-01-20T18:14:12.273Z,5.10
2019-01-20T18:16:41.595Z,4.53
2019-01-20T18:19:11.451Z,6.43
2019-01-20T18:24:29.147Z,3.10
2019-01-20T18:26:58.554Z,4.27
2019-01-20T18:29:27.868Z,2.57
2019-01-20T18:31:57.522Z,3.37
2019-01-20T18:34:46.101Z,2.77
2019-01-20T18:37:15.413Z,3.67
2019-01-20T18:39:45.159Z,7.70
2019-01-20T18:42:14.519Z,3.80
2019-01-20T18:44:44.085Z,2.60
2019-01-20T18:47:13.376Z,5.10
2019-01-20T18:49:42.966Z,2.70
2019-01-20T18:52:12.266Z,2.70
2019-01-20T18:54:41.611Z,4.00
2019-01-20T18:57:10.983Z,5.33
2019-01-20T19:02:15.445Z,3.63
2019-01-20T19:04:44.861Z,2.27
2019-01-20T19:07:14.215Z,2.33
2019-01-20T19:09:43.719Z,2.50
2019-01-20T19:12:13.066Z,2.13
2019-01-20T19:14:42.414Z,3.87
2019-01-20T19:17:11.821Z,1.87
2019-01-20T19:19:41.235Z,1.70
2019-01-20T19:22:10.658Z,3.83
2019-01-20T19:24:39.944Z,2.77
2019-01-20T19:27:28.233Z,1.73
2019-01-20T19:29:57.770Z,2.40
2019-01-20T19:32:46.067Z,2.17
2019-01-20T19:35:15.605Z,5.27
2019-01-20T19:37:44.954Z,4.67
2019-01-20T19:40:14.884Z,3.87
2019-01-20T19:43:03.165Z,4.27
2019-01-20T19:45:32.491Z,1.87
2019-01-20T19:48:01.999Z,2.90
2019-01-20T19:50:31.297Z,1.53
2019-01-20T19:53:00.751Z,2.60
2019-01-20T19:55:32.143Z,4.33
2019-01-20T19:58:20.610Z,7.53
2019-01-20T20:00:50.036Z,6.93
2019-01-20T20:03:19.357Z,2.47
2019-01-20T20:05:48.779Z,1.83
2019-01-20T20:08:18.233Z,8.07
2019-01-20T20:10:47.871Z,4.63
2019-01-20T20:13:17.230Z,3.93
2019-01-20T20:15:46.582Z,5.43
2019-01-20T20:18:15.968Z,3.37
2019-01-20T20:20:45.603Z,3.97
2019-01-20T20:23:15.014Z,3.33
2019-01-20T20:25:46.885Z,2.13
2019-01-20T20:28:16.457Z,4.87
2019-01-20T20:30:45.856Z,5.07
2019-01-20T20:33:15.335Z,3.33
2019-01-20T20:35:46.778Z,3.07
2019-01-20T20:38:16.543Z,6.10
2019-01-20T20:40:45.871Z,6.20
2019-01-20T20:43:15.396Z,2.70
2019-01-20T20:45:44.707Z,4.03
2019-01-20T20:48:14.229Z,4.23
2019-01-20T20:50:43.632Z,7.07
2019-01-20T20:53:13.409Z,6.70
2019-01-20T20:55:42.729Z,3.67
2019-01-20T20:58:12.437Z,4.93
2019-01-20T21:00:44.040Z,7.57
2019-01-20T21:03:19.352Z,3.97
2019-01-20T21:05:49.168Z,4.67
2019-01-20T21:08:18.497Z,4.97
2019-01-20T21:10:48.031Z,5.20
2019-01-20T21:13:17.350Z,3.40
2019-01-20T21:15:46.896Z,6.57
2019-01-20T21:18:16.223Z,3.57
2019-01-20T21:20:45.743Z,4.43
2019-01-20T21:23:15.054Z,3.43
2019-01-20T21:25:44.347Z,4.67
2019-01-20T21:28:13.968Z,6.53
2019-01-20T21:30:43.495Z,9.00
2019-01-20T21:33:12.791Z,5.73
2019-01-20T21:35:42.239Z,6.43
2019-01-20T21:38:11.587Z,4.27
2019-01-20T21:40:41.129Z,5.80
2019-01-20T21:43:10.446Z,4.23
2019-01-20T21:45:40.640Z,8.23
2019-01-20T21:48:09.967Z,12.00
2019-01-20T21:50:39.590Z,7.53
2019-01-20T21:53:08.923Z,10.03
2019-01-20T21:55:38.541Z,11.27
2019-01-20T21:58:07.863Z,13.47
2019-01-20T22:00:37.312Z,10.13
2019-01-20T22:06:02.272Z,11.00
2019-01-20T22:08:31.595Z,13.43
2019-01-20T22:11:01.264Z,10.47
2019-01-20T22:13:30.537Z,12.00
2019-01-20T22:16:00.167Z,14.90
2019-01-20T22:18:29.452Z,13.80
2019-01-20T22:20:58.822Z,14.87
2019-01-20T22:23:28.138Z,14.57
2019-01-20T22:25:57.466Z,14.03
2019-01-20T22:28:26.794Z,13.17
2019-01-20T22:30:56.373Z,11.90
2019-01-20T22:33:25.768Z,12.73
2019-01-20T22:35:55.370Z,13.80
2019-01-20T22:38:24.659Z,10.40
2019-01-20T22:40:54.224Z,10.97
2019-01-20T22:43:23.568Z,12.97
2019-01-20T22:45:53.358Z,14.53
2019-01-20T22:48:22.707Z,10.17
2019-01-20T22:50:52.250Z,16.97
2019-01-20T22:53:21.532Z,12.80
2019-01-20T22:55:51.186Z,11.50
2019-01-20T22:58:20.505Z,16.67
2019-01-20T23:01:11.688Z,16.07
2019-01-20T23:03:40.982Z,9.63
2019-01-20T23:06:10.335Z,12.03
2019-01-20T23:08:39.671Z,9.90
2019-01-20T23:11:08.958Z,13.20
2019-01-20T23:13:38.315Z,13.47
2019-01-20T23:18:43.091Z,11.30
2019-01-20T23:21:12.736Z,13.47
2019-01-20T23:23:42.083Z,16.17
2019-01-20T23:26:11.482Z,19.77
2019-01-20T23:28:40.867Z,16.37
2019-01-20T23:31:10.365Z,19.57
2019-01-20T23:33:39.664Z,20.03
2019-01-20T23:36:09.168Z,18.33
2019-01-20T23:38:57.632Z,15.10
2019-01-20T23:41:26.926Z,25.10
2019-01-20T23:43:56.595Z,25.63
2019-01-20T23:46:25.913Z,25.13
2019-01-20T23:48:55.364Z,22.27
2019-01-20T23:53:59.615Z,21.63
2019-01-20T23:56:47.965Z,25.87
2019-01-20T23:59:36.300Z,21.10
